createdAt,value
2018-09-04T00:00:49.335Z,5.95
2018-09-04T00:03:17.544Z,6.50
2018-09-04T00:05:45.737Z,6.78
2018-09-04T00:08:13.919Z,6.53
2018-09-04T00:10:42.139Z,6.45
2018-09-04T00:13:10.355Z,6.62
2018-09-04T00:15:38.522Z,6.53
2018-09-04T00:18:06.723Z,6.90
2018-09-04T00:20:34.912Z,7.35
2018-09-04T00:23:03.103Z,6.20
2018-09-04T00:25:31.295Z,6.22
2018-09-04T00:27:59.510Z,7.55
2018-09-04T00:30:27.714Z,7.87
2018-09-04T00:32:55.914Z,6.95
2018-09-04T00:35:24.122Z,7.15
2018-09-04T00:37:52.307Z,6.87
2018-09-04T00:40:20.484Z,7.05
2018-09-04T00:42:48.665Z,7.28
2018-09-04T00:45:17.016Z,7.70
2018-09-04T00:47:45.215Z,6.87
2018-09-04T00:50:13.531Z,5.87
2018-09-04T00:52:41.719Z,5.50
2018-09-04T00:55:09.904Z,5.60
2018-09-04T00:57:38.111Z,5.70
2018-09-04T01:00:06.553Z,6.10
2018-09-04T01:02:34.936Z,6.37
2018-09-04T01:05:03.132Z,6.50
2018-09-04T01:07:31.372Z,7.15
2018-09-04T01:09:59.605Z,7.17
2018-09-04T01:12:27.794Z,5.80
2018-09-04T01:14:57.366Z,5.80
2018-09-04T01:17:25.584Z,6.47
2018-09-04T01:19:53.787Z,6.42
2018-09-04T01:22:21.975Z,7.72
2018-09-04T01:24:50.178Z,6.00
2018-09-04T01:27:18.371Z,5.87
2018-09-04T01:29:46.564Z,5.83
2018-09-04T01:32:14.741Z,5.85
2018-09-04T01:34:42.962Z,6.42
2018-09-04T01:37:11.174Z,5.67
2018-09-04T01:39:39.415Z,8.35
2018-09-04T01:42:07.642Z,6.53
2018-09-04T01:44:35.836Z,6.95
2018-09-04T01:47:04.040Z,6.53
2018-09-04T01:49:32.255Z,8.55
2018-09-04T01:52:00.461Z,7.05
2018-09-04T01:54:28.689Z,7.37
2018-09-04T01:56:56.884Z,7.08
2018-09-04T01:59:25.099Z,6.58
2018-09-04T02:01:53.310Z,6.47
2018-09-04T02:04:21.531Z,6.33
2018-09-04T02:06:49.761Z,6.50
2018-09-04T02:09:17.963Z,6.00
2018-09-04T02:11:46.152Z,6.67
2018-09-04T02:14:14.398Z,6.50
2018-09-04T02:16:42.685Z,6.92
2018-09-04T02:19:10.904Z,6.08
2018-09-04T02:21:39.106Z,6.33
2018-09-04T02:24:07.306Z,6.75
2018-09-04T02:26:35.504Z,7.08
2018-09-04T02:29:03.696Z,6.80
2018-09-04T02:31:31.995Z,6.25
2018-09-04T02:34:00.191Z,6.50
2018-09-04T02:36:28.420Z,6.47
2018-09-04T02:38:56.622Z,7.37
2018-09-04T02:41:24.830Z,6.55
2018-09-04T02:43:53.110Z,7.92
2018-09-04T02:46:21.303Z,6.45
2018-09-04T02:48:49.521Z,6.37
2018-09-04T02:51:17.722Z,6.28
2018-09-04T02:53:45.925Z,7.08
2018-09-04T02:56:14.132Z,6.87
2018-09-04T02:58:42.353Z,8.15
2018-09-04T03:01:10.566Z,6.30
2018-09-04T03:03:38.761Z,6.05
2018-09-04T03:06:06.967Z,6.70
2018-09-04T03:08:35.167Z,6.40
2018-09-04T03:11:03.394Z,6.30
2018-09-04T03:13:31.612Z,6.47
2018-09-04T03:15:59.831Z,7.42
2018-09-04T03:18:28.049Z,6.30
2018-09-04T03:20:56.253Z,7.35
2018-09-04T03:23:24.445Z,7.30
2018-09-04T03:25:52.682Z,7.55
2018-09-04T03:28:20.928Z,7.45
2018-09-04T03:30:49.354Z,7.15
2018-09-04T03:33:17.547Z,7.42
2018-09-04T03:35:45.855Z,9.13
2018-09-04T03:38:14.086Z,6.70
2018-09-04T03:40:42.316Z,6.80
2018-09-04T03:43:10.517Z,7.22
2018-09-04T03:45:38.727Z,6.87
2018-09-04T03:48:07.519Z,6.75
2018-09-04T03:50:35.729Z,6.95
2018-09-04T03:53:03.911Z,6.90
2018-09-04T03:55:32.110Z,6.45
2018-09-04T03:58:00.324Z,8.33
2018-09-04T04:00:28.543Z,6.47
2018-09-04T04:02:56.750Z,6.22
2018-09-04T04:05:24.932Z,5.75
2018-09-04T04:07:53.155Z,6.58
2018-09-04T04:10:21.354Z,6.70
2018-09-04T04:12:49.557Z,6.95
2018-09-04T04:15:18.012Z,6.17
2018-09-04T04:17:46.251Z,6.30
2018-09-04T04:20:14.509Z,8.30
2018-09-04T04:22:42.729Z,6.70
2018-09-04T04:25:10.937Z,6.62
2018-09-04T04:27:39.172Z,6.45
2018-09-04T04:30:07.409Z,6.80
2018-09-04T04:32:35.630Z,8.68
2018-09-04T04:35:04.134Z,7.17
2018-09-04T04:37:32.345Z,6.47
2018-09-04T04:40:00.691Z,7.08
2018-09-04T04:42:29.094Z,9.48
2018-09-04T04:44:57.352Z,7.05
2018-09-04T04:47:30.961Z,7.47
2018-09-04T04:49:59.174Z,7.05
2018-09-04T04:52:27.499Z,6.83
2018-09-04T04:54:55.732Z,6.78
2018-09-04T04:57:23.951Z,6.90
2018-09-04T04:59:52.497Z,6.58
2018-09-04T05:02:20.724Z,7.42
2018-09-04T05:04:48.911Z,6.72
2018-09-04T05:07:17.122Z,6.92
2018-09-04T05:09:45.310Z,6.92
2018-09-04T05:12:13.501Z,6.90
2018-09-04T05:14:41.706Z,7.62
2018-09-04T05:17:09.934Z,8.98
2018-09-04T05:19:38.180Z,8.57
2018-09-04T05:22:06.395Z,8.80
2018-09-04T05:24:34.587Z,8.53
2018-09-04T05:27:02.778Z,10.70
2018-09-04T05:29:30.992Z,8.53
2018-09-04T05:32:06.194Z,7.77
2018-09-04T05:34:34.392Z,7.97
2018-09-04T05:37:02.563Z,8.57
2018-09-04T05:39:30.732Z,7.80
2018-09-04T05:42:04.312Z,8.57
2018-09-04T05:44:32.563Z,8.03
2018-09-04T05:47:00.743Z,7.97
2018-09-04T05:49:32.331Z,7.72
2018-09-04T05:52:00.522Z,7.78
2018-09-04T05:54:28.703Z,8.40
2018-09-04T05:56:56.910Z,6.72
2018-09-04T05:59:25.095Z,8.18
2018-09-04T06:01:53.367Z,9.00
2018-09-04T06:04:21.575Z,7.55
2018-09-04T06:06:49.747Z,8.35
2018-09-04T06:09:18.161Z,7.55
2018-09-04T06:11:46.368Z,9.25
2018-09-04T06:14:14.688Z,7.50
2018-09-04T06:16:42.923Z,7.47
2018-09-04T06:19:11.102Z,8.20
2018-09-04T06:21:39.288Z,7.67
2018-09-04T06:24:07.490Z,7.45
2018-09-04T06:26:35.672Z,8.10
2018-09-04T06:29:03.844Z,7.75
2018-09-04T06:31:32.037Z,8.60
2018-09-04T06:34:00.304Z,7.65
2018-09-04T06:36:28.543Z,7.67
2018-09-04T06:38:56.690Z,7.87
2018-09-04T06:41:24.859Z,8.28
2018-09-04T06:43:53.047Z,7.50
2018-09-04T06:46:21.262Z,7.85
2018-09-04T06:48:49.437Z,7.65
2018-09-04T06:51:17.608Z,7.92
2018-09-04T06:53:45.790Z,7.97
2018-09-04T06:56:13.996Z,7.60
2018-09-04T06:58:42.175Z,6.33
2018-09-04T07:01:10.366Z,7.28
2018-09-04T07:03:38.680Z,7.33
2018-09-04T07:06:07.182Z,8.10
2018-09-04T07:08:35.294Z,8.53
2018-09-04T07:11:03.556Z,8.50
2018-09-04T07:13:31.766Z,9.05
2018-09-04T07:15:59.968Z,8.45
2018-09-04T07:18:28.178Z,7.87
2018-09-04T07:20:56.369Z,8.43
2018-09-04T07:23:24.551Z,8.63
2018-09-04T07:25:52.733Z,8.78
2018-09-04T07:28:20.895Z,9.33
2018-09-04T07:30:49.066Z,8.00
2018-09-04T07:33:17.262Z,7.60
2018-09-04T07:35:45.451Z,7.40
2018-09-04T07:38:13.632Z,7.45
2018-09-04T07:40:42.104Z,6.65
2018-09-04T07:43:10.317Z,7.45
2018-09-04T07:45:38.594Z,6.70
2018-09-04T07:48:06.766Z,7.35
2018-09-04T07:50:34.987Z,6.92
2018-09-04T07:53:03.169Z,6.62
2018-09-04T07:55:31.387Z,7.08
2018-09-04T07:57:59.559Z,7.50
2018-09-04T08:00:27.810Z,6.47
2018-09-04T08:02:56.023Z,7.80
2018-09-04T08:05:24.221Z,8.30
2018-09-04T08:07:52.391Z,7.40
2018-09-04T08:10:20.572Z,7.12
2018-09-04T08:12:48.761Z,7.28
2018-09-04T08:15:16.949Z,8.80
2018-09-04T08:17:45.140Z,6.53
2018-09-04T08:20:13.614Z,6.90
2018-09-04T08:22:41.820Z,6.53
2018-09-04T08:25:10.001Z,7.08
2018-09-04T08:27:38.193Z,7.90
2018-09-04T08:30:06.386Z,6.22
2018-09-04T08:32:34.575Z,6.50
2018-09-04T08:35:02.766Z,7.97
2018-09-04T08:37:30.960Z,7.05
2018-09-04T08:39:59.197Z,7.20
2018-09-04T08:42:27.323Z,7.58
2018-09-04T08:44:55.511Z,7.15
2018-09-04T08:47:23.759Z,7.30
2018-09-04T08:49:51.914Z,9.33
2018-09-04T08:52:20.135Z,7.58
2018-09-04T08:54:48.346Z,7.05
2018-09-04T08:57:16.544Z,6.87
2018-09-04T08:59:44.718Z,7.40
2018-09-04T09:02:12.891Z,7.87
2018-09-04T09:04:41.051Z,7.55
2018-09-04T09:07:09.259Z,7.90
2018-09-04T09:09:37.459Z,9.65
2018-09-04T09:12:05.708Z,6.15
2018-09-04T09:14:33.891Z,6.87
2018-09-04T09:17:02.064Z,6.80
2018-09-04T09:19:30.254Z,10.90
2018-09-04T09:21:58.443Z,7.10
2018-09-04T09:24:26.617Z,6.67
2018-09-04T09:26:54.811Z,6.72
2018-09-04T09:29:22.999Z,6.83
2018-09-04T09:31:51.188Z,6.45
2018-09-04T09:34:19.361Z,6.15
2018-09-04T09:36:47.745Z,5.75
2018-09-04T09:39:15.761Z,7.30
2018-09-04T09:41:43.978Z,6.53
2018-09-04T09:44:12.150Z,5.97
2018-09-04T09:46:40.351Z,6.28
2018-09-04T09:49:08.574Z,6.33
2018-09-04T09:51:36.758Z,5.87
2018-09-04T09:54:04.989Z,5.78
2018-09-04T09:56:33.143Z,6.95
2018-09-04T09:59:01.327Z,8.10
2018-09-04T10:01:35.737Z,7.22
2018-09-04T10:04:05.728Z,7.10
2018-09-04T10:06:33.873Z,7.10
2018-09-04T10:09:02.089Z,15.45
2018-09-04T10:11:30.280Z,8.83
2018-09-04T10:13:58.472Z,8.18
2018-09-04T10:16:26.670Z,8.33
2018-09-04T10:18:54.859Z,7.25
2018-09-04T10:21:23.143Z,10.23
2018-09-04T10:23:51.371Z,8.70
2018-09-04T10:26:19.576Z,7.87
2018-09-04T10:28:47.784Z,7.40
2018-09-04T10:31:15.981Z,6.47
2018-09-04T10:33:44.162Z,8.48
2018-09-04T10:36:12.594Z,6.87
2018-09-04T10:38:40.783Z,8.75
2018-09-04T10:41:11.755Z,7.35
2018-09-04T10:43:39.994Z,5.95
2018-09-04T10:46:09.876Z,6.08
2018-09-04T10:48:38.080Z,5.70
2018-09-04T10:51:06.693Z,6.55
2018-09-04T10:53:35.294Z,9.13
2018-09-04T10:56:03.687Z,7.42
2018-09-04T10:58:32.097Z,8.78
2018-09-04T11:01:00.367Z,6.80
2018-09-04T11:03:28.681Z,6.70
2018-09-04T11:05:56.888Z,7.42
2018-09-04T11:08:25.075Z,7.20
2018-09-04T11:10:53.265Z,7.17
2018-09-04T11:13:21.448Z,7.33
2018-09-04T11:15:49.627Z,6.37
2018-09-04T11:18:17.800Z,6.70
2018-09-04T11:20:45.995Z,5.55
2018-09-04T11:23:14.190Z,5.62
2018-09-04T11:25:42.367Z,5.70
2018-09-04T11:28:10.579Z,6.80
2018-09-04T11:30:38.828Z,5.72
2018-09-04T11:33:06.945Z,6.83
2018-09-04T11:35:35.151Z,6.37
2018-09-04T11:38:03.392Z,5.47
2018-09-04T11:40:31.593Z,5.70
2018-09-04T11:42:59.803Z,5.53
2018-09-04T11:45:28.025Z,5.42
2018-09-04T11:47:56.205Z,5.78
2018-09-04T11:50:24.406Z,5.60
2018-09-04T11:52:52.655Z,4.95
2018-09-04T11:55:20.875Z,5.53
2018-09-04T11:57:49.078Z,5.40
2018-09-04T12:00:23.291Z,5.17
2018-09-04T12:02:52.079Z,7.55
2018-09-04T12:05:20.840Z,5.00
2018-09-04T12:07:49.801Z,5.30
2018-09-04T12:10:18.414Z,5.22
2018-09-04T12:12:47.264Z,5.08
2018-09-04T12:15:16.276Z,5.58
2018-09-04T12:17:44.989Z,5.08
2018-09-04T12:20:50.791Z,4.70
2018-09-04T12:23:20.129Z,5.35
2018-09-04T12:25:53.003Z,4.83
2018-09-04T12:28:21.774Z,5.42
2018-09-04T12:30:50.517Z,4.87
2018-09-04T12:33:19.334Z,4.90
2018-09-04T12:35:47.990Z,4.80
2018-09-04T12:38:18.281Z,4.80
2018-09-04T12:40:47.436Z,4.72
2018-09-04T12:43:16.591Z,4.50
2018-09-04T12:45:50.555Z,4.20
2018-09-04T12:48:25.747Z,4.72
2018-09-04T12:50:55.298Z,5.65
2018-09-04T12:53:24.447Z,4.12
2018-09-04T12:55:53.194Z,5.87
2018-09-04T12:58:21.917Z,4.83
2018-09-04T13:00:51.778Z,5.00
2018-09-04T13:03:22.147Z,4.87
2018-09-04T13:05:50.326Z,4.65
2018-09-04T13:08:19.636Z,4.40
2018-09-04T13:10:48.030Z,4.37
2018-09-04T13:13:16.229Z,4.30
2018-09-04T13:15:47.469Z,4.85
2018-09-04T13:18:15.647Z,4.47
2018-09-04T13:20:44.111Z,3.98
2018-09-04T13:23:12.337Z,4.20
2018-09-04T13:25:40.911Z,5.08
2018-09-04T13:28:09.397Z,4.17
2018-09-04T13:30:38.293Z,4.22
2018-09-04T13:33:06.520Z,4.90
2018-09-04T13:35:35.224Z,3.75
2018-09-04T13:38:03.438Z,4.50
2018-09-04T13:40:32.272Z,3.95
2018-09-04T13:43:00.524Z,4.37
2018-09-04T13:45:28.774Z,4.35
2018-09-04T13:47:57.772Z,3.70
2018-09-04T13:50:26.006Z,4.30
2018-09-04T13:52:54.193Z,4.08
2018-09-04T13:55:22.582Z,4.25
2018-09-04T13:57:51.150Z,6.08
2018-09-04T14:00:19.777Z,4.35
2018-09-04T14:02:47.944Z,4.00
2018-09-04T14:05:16.134Z,4.22
2018-09-04T14:07:44.326Z,3.90
2018-09-04T14:10:12.867Z,4.42
2018-09-04T14:12:41.090Z,4.35
2018-09-04T14:15:09.666Z,4.47
2018-09-04T14:17:37.851Z,4.40
2018-09-04T14:20:06.740Z,4.17
2018-09-04T14:22:35.086Z,4.40
2018-09-04T14:25:03.192Z,4.90
2018-09-04T14:27:31.391Z,7.65
2018-09-04T14:30:16.349Z,4.17
2018-09-04T14:32:27.762Z,4.33
2018-09-04T14:34:55.955Z,4.37
2018-09-04T14:37:24.132Z,4.33
2018-09-04T14:39:55.591Z,3.90
2018-09-04T14:42:20.503Z,4.35
2018-09-04T14:44:48.724Z,4.50
2018-09-04T14:47:16.875Z,4.42
2018-09-04T14:49:45.066Z,6.47
2018-09-04T14:52:13.248Z,3.90
2018-09-04T14:54:41.436Z,4.47
2018-09-04T14:57:09.659Z,5.45
2018-09-04T14:59:37.833Z,4.62
2018-09-04T15:02:06.011Z,4.47
2018-09-04T15:04:34.195Z,4.42
2018-09-04T15:07:02.395Z,6.10
2018-09-04T15:09:30.569Z,4.55
2018-09-04T15:11:58.777Z,4.30
2018-09-04T15:14:26.962Z,4.40
2018-09-04T15:16:57.444Z,4.92
2018-09-04T15:19:26.101Z,5.67
2018-09-04T15:21:54.290Z,4.53
2018-09-04T15:24:22.489Z,4.33
2018-09-04T15:26:50.880Z,5.30
2018-09-04T15:29:19.074Z,4.20
2018-09-04T15:31:47.301Z,6.62
2018-09-04T15:34:15.544Z,4.78
2018-09-04T15:36:43.728Z,4.60
2018-09-04T15:39:11.916Z,4.78
2018-09-04T15:41:40.109Z,4.50
2018-09-04T15:44:08.297Z,4.75
2018-09-04T15:46:36.485Z,4.62
2018-09-04T15:49:10.347Z,4.50
2018-09-04T15:51:38.529Z,4.65
2018-09-04T15:54:06.719Z,5.08
2018-09-04T15:56:35.028Z,4.40
2018-09-04T15:59:03.166Z,4.83
2018-09-04T16:01:31.450Z,4.33
2018-09-04T16:03:59.723Z,4.42
2018-09-04T16:06:28.189Z,4.53
2018-09-04T16:08:56.582Z,4.25
2018-09-04T16:11:25.310Z,4.47
2018-09-04T16:13:53.508Z,5.00
2018-09-04T16:16:21.715Z,4.60
2018-09-04T16:18:49.884Z,5.17
2018-09-04T16:21:18.070Z,5.42
2018-09-04T16:23:46.247Z,4.70
2018-09-04T16:26:14.432Z,5.15
2018-09-04T16:28:42.617Z,4.65
2018-09-04T16:31:10.801Z,4.20
2018-09-04T16:33:38.974Z,6.55
2018-09-04T16:36:07.586Z,4.50
2018-09-04T16:38:35.728Z,4.35
2018-09-04T16:41:03.941Z,5.08
2018-09-04T16:43:32.161Z,4.47
2018-09-04T16:46:00.367Z,5.72
2018-09-04T16:48:30.735Z,4.25
2018-09-04T16:50:59.766Z,4.72
2018-09-04T16:53:29.375Z,4.50
2018-09-04T16:55:57.608Z,4.75
2018-09-04T16:58:25.826Z,4.45
2018-09-04T17:00:54.038Z,4.53
2018-09-04T17:03:22.629Z,5.10
2018-09-04T17:05:50.857Z,4.80
2018-09-04T17:08:19.070Z,4.90
2018-09-04T17:10:47.291Z,5.65
2018-09-04T17:13:15.553Z,6.03
2018-09-04T17:15:44.019Z,4.92
2018-09-04T17:18:12.262Z,5.47
2018-09-04T17:20:40.485Z,5.00
2018-09-04T17:23:08.827Z,4.95
2018-09-04T17:25:37.036Z,4.97
2018-09-04T17:28:05.360Z,5.20
2018-09-04T17:30:33.566Z,5.67
2018-09-04T17:33:01.770Z,6.85
2018-09-04T17:35:32.691Z,5.97
2018-09-04T17:38:00.917Z,6.70
2018-09-04T17:40:29.153Z,7.00
2018-09-04T17:42:57.322Z,5.30
2018-09-04T17:45:25.554Z,5.65
2018-09-04T17:47:54.689Z,5.87
2018-09-04T17:50:22.809Z,5.42
2018-09-04T17:52:51.030Z,4.60
2018-09-04T17:55:19.243Z,5.15
2018-09-04T17:58:36.443Z,5.50
2018-09-04T18:01:04.704Z,4.75
2018-09-04T18:03:32.847Z,5.03
2018-09-04T18:06:01.046Z,5.22
2018-09-04T18:08:29.235Z,8.28
2018-09-04T18:10:57.418Z,5.40
2018-09-04T18:13:25.612Z,5.25
2018-09-04T18:15:53.819Z,5.20
2018-09-04T18:18:22.013Z,5.05
2018-09-04T18:20:50.217Z,5.35
2018-09-04T18:23:18.481Z,5.67
2018-09-04T18:25:46.683Z,6.00
2018-09-04T18:28:14.874Z,7.12
2018-09-04T18:30:43.064Z,7.10
2018-09-04T18:33:11.243Z,5.47
2018-09-04T18:35:39.449Z,5.53
2018-09-04T18:38:07.647Z,5.58
2018-09-04T18:40:35.855Z,8.25
2018-09-04T18:43:04.071Z,41.65
2018-09-04T18:45:43.965Z,47.35
2018-09-04T18:48:12.139Z,29.18
2018-09-04T18:50:40.360Z,26.00
2018-09-04T18:53:08.579Z,16.70
2018-09-04T18:55:36.805Z,11.22
2018-09-04T18:58:05.414Z,6.90
2018-09-04T19:00:33.610Z,5.47
2018-09-04T19:03:01.804Z,6.08
2018-09-04T19:05:30.186Z,5.87
2018-09-04T19:07:58.414Z,5.83
2018-09-04T19:10:26.615Z,5.70
2018-09-04T19:12:54.825Z,5.87
2018-09-04T19:15:22.976Z,5.85
2018-09-04T19:17:51.160Z,5.42
2018-09-04T19:20:19.729Z,6.28
2018-09-04T19:22:47.852Z,5.90
2018-09-04T19:25:16.099Z,7.05
2018-09-04T19:27:44.317Z,5.08
2018-09-04T19:30:12.689Z,4.97
2018-09-04T19:32:40.893Z,5.53
2018-09-04T19:35:09.096Z,6.25
2018-09-04T19:37:37.389Z,5.22
2018-09-04T19:40:06.133Z,5.20
2018-09-04T19:42:34.328Z,5.45
2018-09-04T19:45:02.807Z,7.87
2018-09-04T19:47:31.030Z,5.37
2018-09-04T19:49:59.278Z,5.05
2018-09-04T19:52:27.524Z,5.85
2018-09-04T19:54:55.707Z,6.50
2018-09-04T19:57:23.931Z,5.90
2018-09-04T19:59:52.119Z,5.80
2018-09-04T20:02:20.362Z,5.37
2018-09-04T20:04:48.571Z,6.03
2018-09-04T20:07:16.846Z,6.08
2018-09-04T20:09:45.035Z,8.58
2018-09-04T20:12:13.235Z,6.62
2018-09-04T20:14:41.468Z,5.37
2018-09-04T20:17:09.675Z,6.47
2018-09-04T20:19:37.949Z,7.65
2018-09-04T20:22:07.313Z,6.15
2018-09-04T20:24:35.516Z,6.35
2018-09-04T20:27:03.718Z,6.00
2018-09-04T20:29:31.953Z,7.17
2018-09-04T20:32:00.197Z,5.83
2018-09-04T20:34:28.483Z,6.30
2018-09-04T20:36:56.871Z,6.12
2018-09-04T20:39:25.110Z,6.47
2018-09-04T20:41:53.323Z,6.53
2018-09-04T20:44:21.592Z,5.85
2018-09-04T20:46:49.882Z,6.60
2018-09-04T20:49:18.506Z,6.25
2018-09-04T20:51:47.294Z,7.25
2018-09-04T20:54:15.549Z,7.42
2018-09-04T21:07:51.303Z,6.90
2018-09-04T21:10:19.517Z,7.15
2018-09-04T21:12:47.711Z,7.58
2018-09-04T21:15:15.942Z,6.62
2018-09-04T21:17:44.142Z,7.60
2018-09-04T21:20:12.356Z,8.43
2018-09-04T21:22:40.574Z,7.00
2018-09-04T21:25:08.816Z,6.90
2018-09-04T21:27:37.035Z,8.18
2018-09-04T21:30:05.566Z,6.70
2018-09-04T21:32:33.782Z,7.05
2018-09-04T21:35:02.467Z,7.72
2018-09-04T21:37:30.699Z,6.95
2018-09-04T21:39:58.903Z,7.42
2018-09-04T21:42:27.135Z,7.35
2018-09-04T21:44:55.331Z,7.42
2018-09-04T21:47:23.544Z,7.90
2018-09-04T21:49:51.743Z,7.92
2018-09-04T21:52:19.950Z,6.83
2018-09-04T21:54:48.211Z,8.03
2018-09-04T21:57:16.414Z,9.13
2018-09-04T21:59:44.646Z,8.23
2018-09-04T22:02:12.835Z,7.60
2018-09-04T22:04:41.431Z,8.75
2018-09-04T22:07:09.636Z,8.80
2018-09-04T22:09:38.399Z,10.70
2018-09-04T22:12:08.424Z,8.00
2018-09-04T22:14:36.683Z,8.25
2018-09-04T22:17:05.080Z,8.03
2018-09-04T22:19:33.404Z,9.00
2018-09-04T22:22:01.644Z,9.33
2018-09-04T22:24:32.789Z,8.18
2018-09-04T22:27:04.670Z,9.20
2018-09-04T22:29:34.259Z,9.33
2018-09-04T22:32:02.764Z,8.60
2018-09-04T22:34:31.447Z,7.47
2018-09-04T22:37:00.098Z,8.55
2018-09-04T22:39:28.247Z,7.70
2018-09-04T22:41:56.448Z,7.92
2018-09-04T22:44:24.640Z,7.75
2018-09-04T22:46:52.920Z,8.23
2018-09-04T22:49:21.092Z,8.45
2018-09-04T22:51:49.286Z,8.70
2018-09-04T22:54:17.472Z,9.18
2018-09-04T22:56:45.674Z,9.60
2018-09-04T22:59:13.873Z,8.23
2018-09-04T23:01:42.076Z,8.60
2018-09-04T23:04:10.257Z,10.15
2018-09-04T23:06:38.468Z,10.60
2018-09-04T23:09:07.688Z,10.20
2018-09-04T23:11:35.887Z,9.38
2018-09-04T23:14:04.092Z,9.10
2018-09-04T23:16:32.449Z,8.63
2018-09-04T23:19:00.631Z,10.23
2018-09-04T23:21:28.818Z,9.38
2018-09-04T23:23:57.001Z,8.58
2018-09-04T23:26:25.200Z,8.08
2018-09-04T23:28:53.417Z,8.83
2018-09-04T23:31:21.578Z,8.43
2018-09-04T23:33:49.783Z,8.98
2018-09-04T23:36:18.267Z,9.98
2018-09-04T23:38:46.484Z,8.88
2018-09-04T23:41:14.767Z,9.00
2018-09-04T23:43:42.979Z,8.48
2018-09-04T23:46:11.198Z,9.48
2018-09-04T23:48:39.421Z,9.60
2018-09-04T23:51:07.610Z,8.83
2018-09-04T23:53:35.847Z,9.03
2018-09-04T23:56:04.031Z,8.80
2018-09-04T23:58:32.212Z,9.75
